sensor_id;sensor_type;location;lat;lon;timestamp;pressure;altitude;pressure_sealevel;temperature;humidity
70198;BME280;57582;-34.876;138.628;2022-12-07T00:01:30;100513;;;19.67;41.57
70198;BME280;57582;-34.876;138.628;2022-12-07T00:04:27;100518;;;19.69;42.60
70198;BME280;57582;-34.876;138.628;2022-12-07T00:07:27;100515;;;19.90;42.21
70198;BME280;57582;-34.876;138.628;2022-12-07T00:10:27;100529;;;19.98;42.16
70198;BME280;57582;-34.876;138.628;2022-12-07T00:13:29;100522;;;19.97;42.48
70198;BME280;57582;-34.876;138.628;2022-12-07T00:16:29;100521;;;20.05;42.06
70198;BME280;57582;-34.876;138.628;2022-12-07T00:19:27;100532;;;20.26;42.08
70198;BME280;57582;-34.876;138.628;2022-12-07T00:22:27;100518;;;20.38;42.62
70198;BME280;57582;-34.876;138.628;2022-12-07T00:25:29;100518;;;20.38;40.54
70198;BME280;57582;-34.876;138.628;2022-12-07T00:28:27;100520;;;20.33;39.00
70198;BME280;57582;-34.876;138.628;2022-12-07T00:31:29;100518;;;20.45;39.03
70198;BME280;57582;-34.876;138.628;2022-12-07T00:34:27;100521;;;20.61;39.81
70198;BME280;57582;-34.876;138.628;2022-12-07T00:37:28;100521;;;20.71;39.32
70198;BME280;57582;-34.876;138.628;2022-12-07T00:40:27;100526;;;20.89;39.58
70198;BME280;57582;-34.876;138.628;2022-12-07T00:43:28;100523;;;21.04;39.03
70198;BME280;57582;-34.876;138.628;2022-12-07T00:46:28;100521;;;21.19;39.97
70198;BME280;57582;-34.876;138.628;2022-12-07T00:49:28;100527;;;21.31;39.49
70198;BME280;57582;-34.876;138.628;2022-12-07T00:52:27;100537;;;21.19;39.57
70198;BME280;57582;-34.876;138.628;2022-12-07T00:55:27;100527;;;21.21;39.62
70198;BME280;57582;-34.876;138.628;2022-12-07T00:58:27;100524;;;21.13;40.46
70198;BME280;57582;-34.876;138.628;2022-12-07T01:01:31;100541;;;21.13;40.23
70198;BME280;57582;-34.876;138.628;2022-12-07T01:04:27;100534;;;20.94;39.83
70198;BME280;57582;-34.876;138.628;2022-12-07T01:07:27;100530;;;21.01;39.62
70198;BME280;57582;-34.876;138.628;2022-12-07T01:10:28;100542;;;21.18;40.17
70198;BME280;57582;-34.876;138.628;2022-12-07T01:13:28;100535;;;21.31;41.14
70198;BME280;57582;-34.876;138.628;2022-12-07T01:16:28;100534;;;21.39;40.33
70198;BME280;57582;-34.876;138.628;2022-12-07T01:19:27;100538;;;21.49;40.51
70198;BME280;57582;-34.876;138.628;2022-12-07T01:22:28;100530;;;21.44;40.87
70198;BME280;57582;-34.876;138.628;2022-12-07T01:25:29;100532;;;21.54;40.23
70198;BME280;57582;-34.876;138.628;2022-12-07T01:28:28;100533;;;21.66;40.09
70198;BME280;57582;-34.876;138.628;2022-12-07T01:31:28;100535;;;21.66;39.44
70198;BME280;57582;-34.876;138.628;2022-12-07T01:34:28;100530;;;21.56;39.65
70198;BME280;57582;-34.876;138.628;2022-12-07T01:37:33;100542;;;21.40;40.71
70198;BME280;57582;-34.876;138.628;2022-12-07T01:40:28;100517;;;21.46;40.08
70198;BME280;57582;-34.876;138.628;2022-12-07T01:43:28;100529;;;21.31;38.90
70198;BME280;57582;-34.876;138.628;2022-12-07T01:46:28;100533;;;21.43;39.45
70198;BME280;57582;-34.876;138.628;2022-12-07T01:49:31;100537;;;21.49;39.85
70198;BME280;57582;-34.876;138.628;2022-12-07T01:52:29;100537;;;21.39;40.18
70198;BME280;57582;-34.876;138.628;2022-12-07T01:55:28;100525;;;21.27;40.30
70198;BME280;57582;-34.876;138.628;2022-12-07T01:58:28;100525;;;21.28;40.22
70198;BME280;57582;-34.876;138.628;2022-12-07T02:01:28;100535;;;21.47;40.21
70198;BME280;57582;-34.876;138.628;2022-12-07T02:04:28;100542;;;21.52;40.47
70198;BME280;57582;-34.876;138.628;2022-12-07T02:07:28;100525;;;21.55;40.56
70198;BME280;57582;-34.876;138.628;2022-12-07T02:10:28;100536;;;21.80;40.72
70198;BME280;57582;-34.876;138.628;2022-12-07T02:13:30;100524;;;21.97;39.72
70198;BME280;57582;-34.876;138.628;2022-12-07T02:16:32;100536;;;21.62;40.09
70198;BME280;57582;-34.876;138.628;2022-12-07T02:19:35;100518;;;21.34;40.45
70198;BME280;57582;-34.876;138.628;2022-12-07T02:28:30;100533;;;21.60;40.02
70198;BME280;57582;-34.876;138.628;2022-12-07T02:31:28;100536;;;21.71;40.27
70198;BME280;57582;-34.876;138.628;2022-12-07T02:43:28;100559;;;21.72;39.83
70198;BME280;57582;-34.876;138.628;2022-12-07T02:46:29;100554;;;21.63;39.79
70198;BME280;57582;-34.876;138.628;2022-12-07T02:49:29;100568;;;21.64;40.41
70198;BME280;57582;-34.876;138.628;2022-12-07T02:52:28;100557;;;21.72;40.21
70198;BME280;57582;-34.876;138.628;2022-12-07T02:55:29;100551;;;21.64;40.78
70198;BME280;57582;-34.876;138.628;2022-12-07T03:10:33;100564;;;22.12;36.62
70198;BME280;57582;-34.876;138.628;2022-12-07T03:13:32;100546;;;22.01;36.80
70198;BME280;57582;-34.876;138.628;2022-12-07T03:16:33;100550;;;22.13;36.11
70198;BME280;57582;-34.876;138.628;2022-12-07T03:19:28;100555;;;22.36;35.86
70198;BME280;57582;-34.876;138.628;2022-12-07T03:22:28;100537;;;22.29;35.11
70198;BME280;57582;-34.876;138.628;2022-12-07T03:25:28;100547;;;22.46;36.25
70198;BME280;57582;-34.876;138.628;2022-12-07T03:28:31;100548;;;22.42;35.66
70198;BME280;57582;-34.876;138.628;2022-12-07T03:31:30;100554;;;22.42;35.80
70198;BME280;57582;-34.876;138.628;2022-12-07T03:34:30;100556;;;22.40;36.84
70198;BME280;57582;-34.876;138.628;2022-12-07T03:37:31;100556;;;22.40;36.22
70198;BME280;57582;-34.876;138.628;2022-12-07T03:43:28;100555;;;22.66;36.04
70198;BME280;57582;-34.876;138.628;2022-12-07T03:46:34;100556;;;22.66;34.88
70198;BME280;57582;-34.876;138.628;2022-12-07T03:49:41;100563;;;22.61;34.94
70198;BME280;57582;-34.876;138.628;2022-12-07T03:55:29;100565;;;22.13;35.74
70198;BME280;57582;-34.876;138.628;2022-12-07T03:58:28;100573;;;22.17;34.16
70198;BME280;57582;-34.876;138.628;2022-12-07T04:01:29;100575;;;22.00;35.19
70198;BME280;57582;-34.876;138.628;2022-12-07T04:04:28;100584;;;22.07;35.14
70198;BME280;57582;-34.876;138.628;2022-12-07T04:07:28;100578;;;21.95;35.39
70198;BME280;57582;-34.876;138.628;2022-12-07T04:10:28;100581;;;22.07;36.02
70198;BME280;57582;-34.876;138.628;2022-12-07T04:13:29;100581;;;22.42;35.87
70198;BME280;57582;-34.876;138.628;2022-12-07T04:16:28;100576;;;22.62;36.13
70198;BME280;57582;-34.876;138.628;2022-12-07T04:19:29;100565;;;22.60;34.89
70198;BME280;57582;-34.876;138.628;2022-12-07T04:22:28;100573;;;22.82;35.76
70198;BME280;57582;-34.876;138.628;2022-12-07T04:25:29;100571;;;22.69;35.70
70198;BME280;57582;-34.876;138.628;2022-12-07T04:28:28;100569;;;22.64;35.56
70198;BME280;57582;-34.876;138.628;2022-12-07T04:31:28;100568;;;22.86;35.54
70198;BME280;57582;-34.876;138.628;2022-12-07T04:34:28;100581;;;22.68;34.68
70198;BME280;57582;-34.876;138.628;2022-12-07T04:37:28;100576;;;22.64;35.18
70198;BME280;57582;-34.876;138.628;2022-12-07T04:40:28;100581;;;22.77;35.27
70198;BME280;57582;-34.876;138.628;2022-12-07T04:43:28;100581;;;22.92;35.64
70198;BME280;57582;-34.876;138.628;2022-12-07T04:46:28;100581;;;23.10;35.55
70198;BME280;57582;-34.876;138.628;2022-12-07T04:49:28;100592;;;23.02;35.29
70198;BME280;57582;-34.876;138.628;2022-12-07T04:52:28;100589;;;23.15;35.69
70198;BME280;57582;-34.876;138.628;2022-12-07T04:55:28;100575;;;23.08;35.29
70198;BME280;57582;-34.876;138.628;2022-12-07T04:58:28;100582;;;23.22;35.82
70198;BME280;57582;-34.876;138.628;2022-12-07T05:01:29;100597;;;23.01;35.81
70198;BME280;57582;-34.876;138.628;2022-12-07T05:04:28;100608;;;22.48;37.75
70198;BME280;57582;-34.876;138.628;2022-12-07T05:07:28;100607;;;22.03;39.48
70198;BME280;57582;-34.876;138.628;2022-12-07T05:10:28;100624;;;21.72;40.65
70198;BME280;57582;-34.876;138.628;2022-12-07T05:13:28;100619;;;21.54;41.39
70198;BME280;57582;-34.876;138.628;2022-12-07T05:16:28;100618;;;21.36;40.45
70198;BME280;57582;-34.876;138.628;2022-12-07T05:19:28;100639;;;21.21;41.58
70198;BME280;57582;-34.876;138.628;2022-12-07T05:22:28;100632;;;21.22;44.50
70198;BME280;57582;-34.876;138.628;2022-12-07T05:25:29;100643;;;21.25;46.65
70198;BME280;57582;-34.876;138.628;2022-12-07T05:28:28;100632;;;21.12;44.36
70198;BME280;57582;-34.876;138.628;2022-12-07T05:31:28;100624;;;21.00;43.75
70198;BME280;57582;-34.876;138.628;2022-12-07T05:34:28;100636;;;20.83;45.03
70198;BME280;57582;-34.876;138.628;2022-12-07T05:37:28;100624;;;20.72;43.73
70198;BME280;57582;-34.876;138.628;2022-12-07T05:40:28;100635;;;20.72;44.72
70198;BME280;57582;-34.876;138.628;2022-12-07T05:43:28;100631;;;20.78;44.11
70198;BME280;57582;-34.876;138.628;2022-12-07T05:46:28;100636;;;20.80;44.66
70198;BME280;57582;-34.876;138.628;2022-12-07T05:49:29;100632;;;21.05;44.11
70198;BME280;57582;-34.876;138.628;2022-12-07T05:52:28;100628;;;21.05;42.29
70198;BME280;57582;-34.876;138.628;2022-12-07T05:55:28;100633;;;21.32;42.18
70198;BME280;57582;-34.876;138.628;2022-12-07T05:58:28;100620;;;21.56;42.75
70198;BME280;57582;-34.876;138.628;2022-12-07T06:01:29;100625;;;21.69;42.51
70198;BME280;57582;-34.876;138.628;2022-12-07T06:04:29;100628;;;21.74;43.47
70198;BME280;57582;-34.876;138.628;2022-12-07T06:07:28;100609;;;21.91;42.37
70198;BME280;57582;-34.876;138.628;2022-12-07T06:10:28;100604;;;21.90;42.42
70198;BME280;57582;-34.876;138.628;2022-12-07T06:13:29;100626;;;21.96;41.76
70198;BME280;57582;-34.876;138.628;2022-12-07T06:16:28;100633;;;21.97;42.32
70198;BME280;57582;-34.876;138.628;2022-12-07T06:19:28;100632;;;22.13;41.38
70198;BME280;57582;-34.876;138.628;2022-12-07T06:22:28;100640;;;22.18;40.68
70198;BME280;57582;-34.876;138.628;2022-12-07T06:25:29;100632;;;22.23;40.57
70198;BME280;57582;-34.876;138.628;2022-12-07T06:28:28;100644;;;22.10;40.85
70198;BME280;57582;-34.876;138.628;2022-12-07T06:31:28;100643;;;22.10;40.77
70198;BME280;57582;-34.876;138.628;2022-12-07T06:34:28;100642;;;21.97;40.49
70198;BME280;57582;-34.876;138.628;2022-12-07T06:37:29;100634;;;21.94;40.59
70198;BME280;57582;-34.876;138.628;2022-12-07T06:40:28;100643;;;21.83;41.75
70198;BME280;57582;-34.876;138.628;2022-12-07T06:43:28;100646;;;21.68;41.88
70198;BME280;57582;-34.876;138.628;2022-12-07T06:46:28;100640;;;21.52;41.57
70198;BME280;57582;-34.876;138.628;2022-12-07T06:49:29;100642;;;21.58;42.27
70198;BME280;57582;-34.876;138.628;2022-12-07T06:52:28;100632;;;21.62;42.07
70198;BME280;57582;-34.876;138.628;2022-12-07T06:55:28;100644;;;21.79;40.99
70198;BME280;57582;-34.876;138.628;2022-12-07T06:58:28;100633;;;21.74;39.78
70198;BME280;57582;-34.876;138.628;2022-12-07T07:01:29;100641;;;21.64;38.70
70198;BME280;57582;-34.876;138.628;2022-12-07T07:04:28;100655;;;21.47;39.31
70198;BME280;57582;-34.876;138.628;2022-12-07T07:07:28;100657;;;21.42;40.86
70198;BME280;57582;-34.876;138.628;2022-12-07T07:10:28;100645;;;21.46;41.18
70198;BME280;57582;-34.876;138.628;2022-12-07T07:13:29;100644;;;21.42;41.33
70198;BME280;57582;-34.876;138.628;2022-12-07T07:16:29;100657;;;21.48;41.59
70198;BME280;57582;-34.876;138.628;2022-12-07T07:19:28;100650;;;21.36;40.58
70198;BME280;57582;-34.876;138.628;2022-12-07T07:22:28;100664;;;21.28;39.76
70198;BME280;57582;-34.876;138.628;2022-12-07T07:25:29;100663;;;21.37;39.04
70198;BME280;57582;-34.876;138.628;2022-12-07T07:28:28;100665;;;21.48;38.66
70198;BME280;57582;-34.876;138.628;2022-12-07T07:31:28;100665;;;21.57;39.05
70198;BME280;57582;-34.876;138.628;2022-12-07T07:34:28;100674;;;21.66;39.46
70198;BME280;57582;-34.876;138.628;2022-12-07T07:37:29;100680;;;21.71;38.85
70198;BME280;57582;-34.876;138.628;2022-12-07T07:40:28;100682;;;21.69;40.46
70198;BME280;57582;-34.876;138.628;2022-12-07T07:43:28;100682;;;21.62;39.71
70198;BME280;57582;-34.876;138.628;2022-12-07T07:46:28;100688;;;21.58;39.57
70198;BME280;57582;-34.876;138.628;2022-12-07T07:49:29;100697;;;21.49;39.70
70198;BME280;57582;-34.876;138.628;2022-12-07T07:52:28;100702;;;21.51;39.25
70198;BME280;57582;-34.876;138.628;2022-12-07T07:55:28;100705;;;21.58;38.34
70198;BME280;57582;-34.876;138.628;2022-12-07T07:58:28;100724;;;21.49;39.08
70198;BME280;57582;-34.876;138.628;2022-12-07T08:01:28;100726;;;21.44;39.74
70198;BME280;57582;-34.876;138.628;2022-12-07T08:04:28;100739;;;21.12;40.01
70198;BME280;57582;-34.876;138.628;2022-12-07T08:07:28;100748;;;20.95;40.69
70198;BME280;57582;-34.876;138.628;2022-12-07T08:10:28;100760;;;21.15;40.10
70198;BME280;57582;-34.876;138.628;2022-12-07T08:13:29;100776;;;21.05;39.35
70198;BME280;57582;-34.876;138.628;2022-12-07T08:16:28;100774;;;21.00;40.62
70198;BME280;57582;-34.876;138.628;2022-12-07T08:19:28;100793;;;21.02;40.42
70198;BME280;57582;-34.876;138.628;2022-12-07T08:22:28;100802;;;21.01;39.45
70198;BME280;57582;-34.876;138.628;2022-12-07T08:25:29;100800;;;20.66;39.99
70198;BME280;57582;-34.876;138.628;2022-12-07T08:28:28;100814;;;20.63;39.95
70198;BME280;57582;-34.876;138.628;2022-12-07T08:31:28;100810;;;20.69;40.53
70198;BME280;57582;-34.876;138.628;2022-12-07T08:34:28;100822;;;20.65;40.64
70198;BME280;57582;-34.876;138.628;2022-12-07T08:37:30;100805;;;20.41;40.98
70198;BME280;57582;-34.876;138.628;2022-12-07T08:40:28;100809;;;20.12;40.17
70198;BME280;57582;-34.876;138.628;2022-12-07T08:43:28;100812;;;20.01;39.30
70198;BME280;57582;-34.876;138.628;2022-12-07T08:49:31;100820;;;19.70;39.10
70198;BME280;57582;-34.876;138.628;2022-12-07T08:52:29;100812;;;19.64;39.35
70198;BME280;57582;-34.876;138.628;2022-12-07T08:55:28;100821;;;19.47;40.78
70198;BME280;57582;-34.876;138.628;2022-12-07T08:58:28;100838;;;19.39;42.50
70198;BME280;57582;-34.876;138.628;2022-12-07T09:01:29;100841;;;19.06;42.46
70198;BME280;57582;-34.876;138.628;2022-12-07T09:04:28;100852;;;19.03;42.87
70198;BME280;57582;-34.876;138.628;2022-12-07T09:07:28;100845;;;18.99;42.77
70198;BME280;57582;-34.876;138.628;2022-12-07T09:10:28;100854;;;18.83;42.28
70198;BME280;57582;-34.876;138.628;2022-12-07T09:13:29;100863;;;18.74;42.14
70198;BME280;57582;-34.876;138.628;2022-12-07T09:16:28;100867;;;18.65;42.70
70198;BME280;57582;-34.876;138.628;2022-12-07T09:19:28;100873;;;18.42;43.05
70198;BME280;57582;-34.876;138.628;2022-12-07T09:22:29;100879;;;18.24;43.86
70198;BME280;57582;-34.876;138.628;2022-12-07T09:25:29;100887;;;18.16;43.85
70198;BME280;57582;-34.876;138.628;2022-12-07T09:28:29;100892;;;18.12;44.15
70198;BME280;57582;-34.876;138.628;2022-12-07T09:31:28;100901;;;18.10;43.28
70198;BME280;57582;-34.876;138.628;2022-12-07T09:34:30;100919;;;17.71;43.52
70198;BME280;57582;-34.876;138.628;2022-12-07T09:37:29;100923;;;17.77;43.04
70198;BME280;57582;-34.876;138.628;2022-12-07T09:40:28;100929;;;17.82;42.67
70198;BME280;57582;-34.876;138.628;2022-12-07T09:43:28;100928;;;17.81;42.63
70198;BME280;57582;-34.876;138.628;2022-12-07T09:46:28;100933;;;17.55;41.12
70198;BME280;57582;-34.876;138.628;2022-12-07T09:49:29;100937;;;17.21;41.62
70198;BME280;57582;-34.876;138.628;2022-12-07T09:52:28;100953;;;17.08;41.79
70198;BME280;57582;-34.876;138.628;2022-12-07T09:55:29;100956;;;16.78;42.37
70198;BME280;57582;-34.876;138.628;2022-12-07T09:58:29;100958;;;16.88;42.22
70198;BME280;57582;-34.876;138.628;2022-12-07T10:01:31;100960;;;16.96;42.17
70198;BME280;57582;-34.876;138.628;2022-12-07T10:04:28;100963;;;16.93;42.44
70198;BME280;57582;-34.876;138.628;2022-12-07T10:07:29;100968;;;16.82;42.91
70198;BME280;57582;-34.876;138.628;2022-12-07T10:10:30;100976;;;16.75;41.86
70198;BME280;57582;-34.876;138.628;2022-12-07T10:19:29;100983;;;16.54;41.82
70198;BME280;57582;-34.876;138.628;2022-12-07T10:22:28;100984;;;16.80;41.48
70198;BME280;57582;-34.876;138.628;2022-12-07T10:25:32;100992;;;17.04;40.81
70198;BME280;57582;-34.876;138.628;2022-12-07T10:28:33;100986;;;17.15;41.00
70198;BME280;57582;-34.876;138.628;2022-12-07T10:31:28;101000;;;17.20;40.81
70198;BME280;57582;-34.876;138.628;2022-12-07T10:34:30;101020;;;17.25;41.05
70198;BME280;57582;-34.876;138.628;2022-12-07T10:37:30;101013;;;17.09;41.09
70198;BME280;57582;-34.876;138.628;2022-12-07T10:43:28;101023;;;17.25;41.15
70198;BME280;57582;-34.876;138.628;2022-12-07T11:04:33;101057;;;16.50;41.91
70198;BME280;57582;-34.876;138.628;2022-12-07T11:07:35;101057;;;16.65;42.64
70198;BME280;57582;-34.876;138.628;2022-12-07T11:13:39;101071;;;17.11;42.58
70198;BME280;57582;-34.876;138.628;2022-12-07T11:19:34;101074;;;17.31;41.29
70198;BME280;57582;-34.876;138.628;2022-12-07T11:28:35;101090;;;17.37;40.88
70198;BME280;57582;-34.876;138.628;2022-12-07T11:37:32;101107;;;17.06;42.32
70198;BME280;57582;-34.876;138.628;2022-12-07T11:40:30;101106;;;17.04;42.15
70198;BME280;57582;-34.876;138.628;2022-12-07T11:43:31;101120;;;16.85;42.31
70198;BME280;57582;-34.876;138.628;2022-12-07T11:46:43;101126;;;16.82;42.62
70198;BME280;57582;-34.876;138.628;2022-12-07T11:55:41;101134;;;16.90;42.35
70198;BME280;57582;-34.876;138.628;2022-12-07T12:07:30;101133;;;16.60;42.10
70198;BME280;57582;-34.876;138.628;2022-12-07T12:10:35;101143;;;16.56;42.12
70198;BME280;57582;-34.876;138.628;2022-12-07T12:19:37;101138;;;16.89;41.29
70198;BME280;57582;-34.876;138.628;2022-12-07T12:22:37;101130;;;16.99;40.38
70198;BME280;57582;-34.876;138.628;2022-12-07T12:25:30;101126;;;17.05;40.36
70198;BME280;57582;-34.876;138.628;2022-12-07T12:31:33;101126;;;17.18;40.10
70198;BME280;57582;-34.876;138.628;2022-12-07T12:34:30;101127;;;17.02;40.07
70198;BME280;57582;-34.876;138.628;2022-12-07T12:50:10;101134;;;17.16;39.83
70198;BME280;57582;-34.876;138.628;2022-12-07T12:58:30;101145;;;17.33;39.28
70198;BME280;57582;-34.876;138.628;2022-12-07T13:01:39;101145;;;17.33;39.22
70198;BME280;57582;-34.876;138.628;2022-12-07T13:13:30;101149;;;17.67;38.94
70198;BME280;57582;-34.876;138.628;2022-12-07T13:16:36;101146;;;17.70;38.82
70198;BME280;57582;-34.876;138.628;2022-12-07T13:25:31;101147;;;17.79;38.89
70198;BME280;57582;-34.876;138.628;2022-12-07T13:28:37;101146;;;17.80;38.84
70198;BME280;57582;-34.876;138.628;2022-12-07T13:34:30;101147;;;17.69;38.88
70198;BME280;57582;-34.876;138.628;2022-12-07T13:37:30;101149;;;17.64;38.64
70198;BME280;57582;-34.876;138.628;2022-12-07T13:40:29;101145;;;17.59;38.75
70198;BME280;57582;-34.876;138.628;2022-12-07T13:43:29;101149;;;17.56;39.00
70198;BME280;57582;-34.876;138.628;2022-12-07T13:47:06;101147;;;17.50;38.79
70198;BME280;57582;-34.876;138.628;2022-12-07T13:49:31;101152;;;17.40;38.98
70198;BME280;57582;-34.876;138.628;2022-12-07T13:52:30;101147;;;17.30;39.11
70198;BME280;57582;-34.876;138.628;2022-12-07T13:55:29;101147;;;17.22;39.45
70198;BME280;57582;-34.876;138.628;2022-12-07T13:58:30;101147;;;17.23;39.31
70198;BME280;57582;-34.876;138.628;2022-12-07T14:01:30;101146;;;17.13;39.54
70198;BME280;57582;-34.876;138.628;2022-12-07T14:04:30;101141;;;17.12;39.59
70198;BME280;57582;-34.876;138.628;2022-12-07T14:07:29;101139;;;17.08;39.76
70198;BME280;57582;-34.876;138.628;2022-12-07T14:10:30;101135;;;17.04;39.90
70198;BME280;57582;-34.876;138.628;2022-12-07T14:13:32;101141;;;16.89;40.35
70198;BME280;57582;-34.876;138.628;2022-12-07T14:16:33;101140;;;16.87;40.54
70198;BME280;57582;-34.876;138.628;2022-12-07T14:19:46;101140;;;16.87;40.96
70198;BME280;57582;-34.876;138.628;2022-12-07T14:22:37;101134;;;16.82;40.67
70198;BME280;57582;-34.876;138.628;2022-12-07T14:25:32;101136;;;16.78;41.00
70198;BME280;57582;-34.876;138.628;2022-12-07T14:31:29;101134;;;16.60;41.69
70198;BME280;57582;-34.876;138.628;2022-12-07T14:34:29;101147;;;16.60;41.71
70198;BME280;57582;-34.876;138.628;2022-12-07T14:37:30;101140;;;16.56;41.79
70198;BME280;57582;-34.876;138.628;2022-12-07T14:40:29;101134;;;16.52;41.79
70198;BME280;57582;-34.876;138.628;2022-12-07T14:43:29;101132;;;16.49;41.84
70198;BME280;57582;-34.876;138.628;2022-12-07T14:46:29;101139;;;16.49;41.78
70198;BME280;57582;-34.876;138.628;2022-12-07T14:49:29;101136;;;16.45;42.07
70198;BME280;57582;-34.876;138.628;2022-12-07T14:52:29;101136;;;16.42;42.08
70198;BME280;57582;-34.876;138.628;2022-12-07T14:55:30;101133;;;16.34;42.17
70198;BME280;57582;-34.876;138.628;2022-12-07T14:58:29;101133;;;16.30;42.36
70198;BME280;57582;-34.876;138.628;2022-12-07T15:01:30;101130;;;16.27;42.67
70198;BME280;57582;-34.876;138.628;2022-12-07T15:04:29;101123;;;16.25;42.84
70198;BME280;57582;-34.876;138.628;2022-12-07T15:07:29;101122;;;16.22;42.93
70198;BME280;57582;-34.876;138.628;2022-12-07T15:10:31;101119;;;16.25;42.79
70198;BME280;57582;-34.876;138.628;2022-12-07T15:13:29;101122;;;16.27;42.70
70198;BME280;57582;-34.876;138.628;2022-12-07T15:16:29;101115;;;16.25;42.63
70198;BME280;57582;-34.876;138.628;2022-12-07T15:19:29;101121;;;16.19;42.61
70198;BME280;57582;-34.876;138.628;2022-12-07T15:22:29;101120;;;16.10;43.13
70198;BME280;57582;-34.876;138.628;2022-12-07T15:25:29;101115;;;16.07;42.98
70198;BME280;57582;-34.876;138.628;2022-12-07T15:28:29;101115;;;16.05;43.19
70198;BME280;57582;-34.876;138.628;2022-12-07T15:31:29;101119;;;16.05;43.18
70198;BME280;57582;-34.876;138.628;2022-12-07T15:34:29;101118;;;16.06;43.36
70198;BME280;57582;-34.876;138.628;2022-12-07T15:37:30;101109;;;16.05;43.51
70198;BME280;57582;-34.876;138.628;2022-12-07T15:40:29;101114;;;16.05;43.55
70198;BME280;57582;-34.876;138.628;2022-12-07T15:43:29;101107;;;15.99;43.56
70198;BME280;57582;-34.876;138.628;2022-12-07T15:46:30;101099;;;15.97;43.78
70198;BME280;57582;-34.876;138.628;2022-12-07T15:49:30;101108;;;15.96;43.46
70198;BME280;57582;-34.876;138.628;2022-12-07T15:52:29;101098;;;15.90;43.62
70198;BME280;57582;-34.876;138.628;2022-12-07T15:55:29;101089;;;15.85;43.83
70198;BME280;57582;-34.876;138.628;2022-12-07T15:58:29;101092;;;15.80;44.00
70198;BME280;57582;-34.876;138.628;2022-12-07T16:01:29;101088;;;15.76;44.45
70198;BME280;57582;-34.876;138.628;2022-12-07T16:04:29;101085;;;15.71;44.58
70198;BME280;57582;-34.876;138.628;2022-12-07T16:07:29;101084;;;15.70;44.64
70198;BME280;57582;-34.876;138.628;2022-12-07T16:10:29;101087;;;15.67;44.87
70198;BME280;57582;-34.876;138.628;2022-12-07T16:13:30;101086;;;15.66;44.90
70198;BME280;57582;-34.876;138.628;2022-12-07T16:16:29;101087;;;15.64;45.10
70198;BME280;57582;-34.876;138.628;2022-12-07T16:19:29;101087;;;15.62;45.19
70198;BME280;57582;-34.876;138.628;2022-12-07T16:22:29;101090;;;15.58;45.29
70198;BME280;57582;-34.876;138.628;2022-12-07T16:25:30;101092;;;15.57;45.52
70198;BME280;57582;-34.876;138.628;2022-12-07T16:28:29;101091;;;15.55;45.27
70198;BME280;57582;-34.876;138.628;2022-12-07T16:31:29;101101;;;15.50;45.71
70198;BME280;57582;-34.876;138.628;2022-12-07T16:34:29;101100;;;15.49;45.80
70198;BME280;57582;-34.876;138.628;2022-12-07T16:37:30;101100;;;15.48;45.97
70198;BME280;57582;-34.876;138.628;2022-12-07T16:40:29;101087;;;15.45;45.99
70198;BME280;57582;-34.876;138.628;2022-12-07T16:43:30;101093;;;15.35;45.87
70198;BME280;57582;-34.876;138.628;2022-12-07T16:46:30;101103;;;15.28;46.41
70198;BME280;57582;-34.876;138.628;2022-12-07T16:49:30;101105;;;15.32;46.40
70198;BME280;57582;-34.876;138.628;2022-12-07T16:52:29;101102;;;15.29;46.55
70198;BME280;57582;-34.876;138.628;2022-12-07T16:55:29;101107;;;15.24;46.64
70198;BME280;57582;-34.876;138.628;2022-12-07T16:58:30;101103;;;15.18;46.84
70198;BME280;57582;-34.876;138.628;2022-12-07T17:01:29;101102;;;15.16;46.98
70198;BME280;57582;-34.876;138.628;2022-12-07T17:04:29;101106;;;15.17;46.97
70198;BME280;57582;-34.876;138.628;2022-12-07T17:07:29;101107;;;15.11;46.98
70198;BME280;57582;-34.876;138.628;2022-12-07T17:10:29;101104;;;15.06;47.21
70198;BME280;57582;-34.876;138.628;2022-12-07T17:13:30;101117;;;15.07;47.29
70198;BME280;57582;-34.876;138.628;2022-12-07T17:16:29;101118;;;15.06;47.03
70198;BME280;57582;-34.876;138.628;2022-12-07T17:19:29;101113;;;14.98;47.22
70198;BME280;57582;-34.876;138.628;2022-12-07T17:22:29;101108;;;14.89;47.44
70198;BME280;57582;-34.876;138.628;2022-12-07T17:25:30;101108;;;14.83;47.71
70198;BME280;57582;-34.876;138.628;2022-12-07T17:28:29;101109;;;14.80;48.01
70198;BME280;57582;-34.876;138.628;2022-12-07T17:31:29;101107;;;14.82;48.04
70198;BME280;57582;-34.876;138.628;2022-12-07T17:34:29;101100;;;14.86;47.92
70198;BME280;57582;-34.876;138.628;2022-12-07T17:37:30;101100;;;14.87;48.02
70198;BME280;57582;-34.876;138.628;2022-12-07T17:40:29;101108;;;14.86;48.00
70198;BME280;57582;-34.876;138.628;2022-12-07T17:43:29;101100;;;14.81;48.13
70198;BME280;57582;-34.876;138.628;2022-12-07T17:46:29;101103;;;14.71;48.29
70198;BME280;57582;-34.876;138.628;2022-12-07T17:49:30;101103;;;14.63;48.58
70198;BME280;57582;-34.876;138.628;2022-12-07T17:52:29;101102;;;14.59;48.96
70198;BME280;57582;-34.876;138.628;2022-12-07T17:55:29;101105;;;14.61;49.06
70198;BME280;57582;-34.876;138.628;2022-12-07T17:58:29;101099;;;14.59;49.12
70198;BME280;57582;-34.876;138.628;2022-12-07T18:01:30;101097;;;14.58;49.12
70198;BME280;57582;-34.876;138.628;2022-12-07T18:04:29;101102;;;14.62;49.30